Time;durP1;ratioP1;P1;durP2;ratioP2;P2;SDS_P1;SDS_P2;PMS_P1;PMS_P2;Temp;Humidity;BMP_temperature;BMP_pressure;BME280_temperature;BME280_humidity;BME280_pressure;Samples;Min_cycle;Max_cycle;Signal;HPM_P1;HPM_P2
2023/12/16 00:00:57;;;;;;;3.40;0.80;;;34.30;1.00;;;;;;4995978;28;20182;-69
2023/12/16 00:03:28;;;;;;;35.40;13.05;;;33.60;1.00;;;;;;4996194;28;20182;-71
2023/12/16 00:05:55;;;;;;;18.02;8.55;;;33.60;1.00;;;;;;4996300;28;20166;-69
2023/12/16 00:08:23;;;;;;;3.92;1.55;;;33.50;1.00;;;;;;4996231;28;20178;-71
2023/12/16 00:10:51;;;;;;;1.75;0.70;;;33.60;1.00;;;;;;4996449;28;20177;-71
2023/12/16 00:13:19;;;;;;;2.90;0.73;;;33.40;1.00;;;;;;4997668;28;20179;-71
2023/12/16 00:15:47;;;;;;;4.47;1.10;;;33.90;1.00;;;;;;4997682;28;20512;-68
2023/12/16 00:18:14;;;;;;;3.45;0.68;;;34.40;1.00;;;;;;4997371;28;20237;-68
2023/12/16 00:20:42;;;;;;;2.40;0.68;;;34.60;1.00;;;;;;4980204;28;20317;-69
2023/12/16 00:23:10;;;;;;;5.57;0.80;;;34.80;1.00;;;;;;4996454;28;20228;-68
2023/12/16 00:25:37;;;;;;;0.85;0.30;;;34.70;1.00;;;;;;4996413;28;20186;-70
2023/12/16 00:28:05;;;;;;;0.82;0.40;;;34.80;1.00;;;;;;4996464;28;20535;-70
2023/12/16 00:30:33;;;;;;;1.73;0.40;;;35.20;1.00;;;;;;4995654;28;20178;-70
2023/12/16 00:33:01;;;;;;;1.75;0.40;;;35.40;1.00;;;;;;4996017;28;20178;-68
2023/12/16 00:35:28;;;;;;;6.78;1.42;;;35.40;1.00;;;;;;4995802;28;20246;-69
2023/12/16 00:41:18;;;;;;;2.30;0.68;;;35.60;1.00;;;;;;4995212;28;20197;-68
2023/12/16 00:43:46;;;;;;;3.53;0.40;;;35.90;1.00;;;;;;4995857;28;20175;-69
2023/12/16 00:46:14;;;;;;;10.00;0.70;;;35.80;1.00;;;;;;4995713;28;20183;-70
2023/12/16 00:48:41;;;;;;;1.38;0.47;;;36.10;1.00;;;;;;4995600;28;20656;-72
2023/12/16 00:51:09;;;;;;;3.22;0.50;;;36.60;1.00;;;;;;4978329;28;20190;-70
2023/12/16 00:53:37;;;;;;;3.00;0.57;;;36.20;1.00;;;;;;4995419;28;20261;-69
2023/12/16 00:56:05;;;;;;;2.35;0.50;;;36.00;1.00;;;;;;4978152;28;20178;-69
2023/12/16 00:58:33;;;;;;;0.85;0.55;;;35.90;1.00;;;;;;4994952;28;20234;-70
2023/12/16 01:01:00;;;;;;;4.45;0.50;;;35.80;1.00;;;;;;4995186;28;20253;-69
2023/12/16 01:03:28;;;;;;;4.10;0.30;;;35.90;1.00;;;;;;4995402;28;20175;-70
2023/12/16 01:05:56;;;;;;;3.70;0.70;;;36.00;1.00;;;;;;4995383;28;20179;-69
2023/12/16 01:08:23;;;;;;;0.73;0.40;;;36.30;1.00;;;;;;4994969;28;20232;-70
2023/12/16 01:10:51;;;;;;;5.88;0.70;;;36.30;1.00;;;;;;4995268;28;20608;-68
2023/12/16 01:13:19;;;;;;;1.35;0.60;;;36.40;1.00;;;;;;4994847;28;20183;-70
2023/12/16 01:15:46;;;;;;;2.88;0.32;;;36.20;1.00;;;;;;4994977;28;20624;-68
2023/12/16 01:18:15;;;;;;;2.13;0.50;;;35.90;1.00;;;;;;4994619;28;20257;-69
2023/12/16 01:20:43;;;;;;;2.20;0.40;;;35.70;1.00;;;;;;4994744;28;20533;-73
2023/12/16 01:23:10;;;;;;;2.08;0.55;;;35.70;1.00;;;;;;4994905;28;20170;-69
2023/12/16 01:25:38;;;;;;;3.08;0.52;;;36.00;1.00;;;;;;4995427;28;20170;-72
2023/12/16 01:28:06;;;;;;;2.00;0.60;;;36.50;1.00;;;;;;4995045;28;20237;-70
2023/12/16 01:30:35;;;;;;;2.65;0.50;;;36.80;1.00;;;;;;4995009;28;20198;-71
2023/12/16 01:33:03;;;;;;;1.30;0.50;;;36.10;1.00;;;;;;4994854;28;20178;-69
2023/12/16 01:35:31;;;;;;;1.02;0.40;;;36.10;1.00;;;;;;4993907;28;20186;-70
2023/12/16 01:37:58;;;;;;;1.35;0.50;;;35.90;1.00;;;;;;4996211;28;20274;-69
2023/12/16 01:40:27;;;;;;;1.13;0.50;;;36.10;1.00;;;;;;4996168;28;20185;-70
2023/12/16 01:42:55;;;;;;;2.80;0.40;;;36.20;1.00;;;;;;4994568;28;20179;-70
2023/12/16 01:45:23;;;;;;;1.88;0.40;;;36.40;1.00;;;;;;4994514;28;20182;-71
2023/12/16 01:47:51;;;;;;;0.88;0.52;;;36.50;1.00;;;;;;4994317;28;20578;-70
2023/12/16 01:50:19;;;;;;;1.40;0.40;;;36.60;1.00;;;;;;4994449;28;20182;-70
2023/12/16 01:52:47;;;;;;;1.42;0.38;;;36.30;1.00;;;;;;4994532;28;20262;-69
2023/12/16 01:55:15;;;;;;;0.50;0.30;;;36.90;1.00;;;;;;4994452;28;20175;-72
2023/12/16 01:57:44;;;;;;;2.10;0.70;;;36.60;1.00;;;;;;4993987;28;20284;-73
2023/12/16 02:00:12;;;;;;;2.03;0.40;;;36.60;1.00;;;;;;4994159;28;20170;-71
2023/12/16 02:02:41;;;;;;;3.75;0.93;;;37.10;1.00;;;;;;4994313;28;20209;-72
2023/12/16 02:05:09;;;;;;;0.77;0.40;;;37.20;1.00;;;;;;4994233;28;20179;-69
2023/12/16 02:07:36;;;;;;;3.58;0.38;;;36.90;1.00;;;;;;4994206;28;20702;-70
2023/12/16 02:10:04;;;;;;;1.23;0.30;;;36.90;1.00;;;;;;4976900;28;20182;-69
2023/12/16 02:12:35;;;;;;;1.77;0.50;;;36.60;1.00;;;;;;4994579;28;20182;-70
2023/12/16 02:15:03;;;;;;;1.23;0.47;;;36.80;1.00;;;;;;4994155;28;20175;-69
2023/12/16 02:17:31;;;;;;;2.20;0.40;;;36.70;1.00;;;;;;4994062;28;20688;-68
2023/12/16 02:23:20;;;;;;;2.38;0.57;;;37.10;1.00;;;;;;4993714;28;20760;-70
2023/12/16 02:25:48;;;;;;;1.10;0.40;;;37.20;1.00;;;;;;4994080;28;20178;-71
2023/12/16 02:28:15;;;;;;;4.07;0.57;;;37.20;1.00;;;;;;4994278;28;20567;-72
2023/12/16 02:30:43;;;;;;;2.45;0.52;;;37.40;1.00;;;;;;4994142;28;20561;-72
2023/12/16 02:33:11;;;;;;;1.98;0.57;;;37.10;1.00;;;;;;4994125;28;20258;-69
2023/12/16 02:35:39;;;;;;;1.17;0.50;;;36.80;1.00;;;;;;4993927;28;20178;-72
2023/12/16 02:38:06;;;;;;;2.05;0.75;;;36.70;1.00;;;;;;4976414;28;20214;-71
2023/12/16 02:40:38;;;;;;;1.23;0.43;;;37.00;1.00;;;;;;4976515;28;20237;-69
2023/12/16 02:43:06;;;;;;;2.72;0.75;;;37.30;1.00;;;;;;4993762;28;20179;-69
2023/12/16 02:45:34;;;;;;;2.47;0.60;;;37.40;1.00;;;;;;4993976;28;20209;-69
2023/12/16 02:48:01;;;;;;;2.90;0.55;;;37.70;1.00;;;;;;4997816;28;20183;-69
2023/12/16 02:50:28;;;;;;;2.13;0.60;;;37.80;1.00;;;;;;4997886;28;20183;-71
2023/12/16 02:52:56;;;;;;;3.20;0.80;;;38.00;1.00;;;;;;4998521;28;20183;-70
2023/12/16 02:55:23;;;;;;;1.52;0.40;;;38.10;1.00;;;;;;4998441;28;20198;-70
2023/12/16 02:57:50;;;;;;;2.38;0.52;;;37.80;1.00;;;;;;4997455;28;20313;-72
2023/12/16 03:00:18;;;;;;;1.70;0.60;;;37.80;1.00;;;;;;4997500;28;20209;-69
2023/12/16 03:02:45;;;;;;;1.35;0.40;;;37.90;1.00;;;;;;4997684;28;20206;-69
2023/12/16 03:05:12;;;;;;;6.32;0.80;;;37.70;1.00;;;;;;4980237;28;20260;-71
2023/12/16 03:07:40;;;;;;;4.68;0.73;;;37.40;1.00;;;;;;4997669;28;20251;-69
2023/12/16 03:10:07;;;;;;;3.50;0.35;;;37.40;1.00;;;;;;4997581;28;20667;-69
2023/12/16 03:12:35;;;;;;;1.42;0.40;;;37.80;1.00;;;;;;4997857;28;20712;-71
2023/12/16 03:15:03;;;;;;;0.68;0.30;;;37.70;1.00;;;;;;4997829;28;20233;-69
2023/12/16 03:17:30;;;;;;;1.67;0.50;;;37.40;1.00;;;;;;4998818;28;20206;-70
2023/12/16 03:19:58;;;;;;;1.30;0.50;;;37.40;1.00;;;;;;4998004;28;20241;-70
2023/12/16 03:22:25;;;;;;;5.05;0.68;;;37.80;1.00;;;;;;4999476;28;20237;-71
2023/12/16 03:24:52;;;;;;;2.47;0.75;;;37.70;1.00;;;;;;4998788;28;20185;-71
2023/12/16 03:27:20;;;;;;;2.45;0.45;;;37.80;1.00;;;;;;4999341;28;20175;-73
2023/12/16 03:29:48;;;;;;;2.65;0.52;;;38.10;1.00;;;;;;4998943;28;20541;-72
2023/12/16 03:32:15;;;;;;;1.70;0.55;;;38.50;1.00;;;;;;4999122;28;20546;-71
2023/12/16 03:34:43;;;;;;;1.40;0.57;;;38.20;1.00;;;;;;5000830;28;20174;-74
2023/12/16 03:37:12;;;;;;;1.92;0.50;;;37.90;1.00;;;;;;5000416;28;20655;-70
2023/12/16 03:39:42;;;;;;;2.53;0.60;;;37.90;1.00;;;;;;4982529;28;20210;-72
2023/12/16 03:42:10;;;;;;;2.72;0.88;;;37.80;1.00;;;;;;4998306;28;20183;-71
2023/12/16 03:44:37;;;;;;;4.93;0.70;;;37.70;1.00;;;;;;4997724;28;20189;-73
2023/12/16 03:47:04;;;;;;;0.85;0.35;;;37.80;1.00;;;;;;4997294;28;20695;-73
2023/12/16 03:49:31;;;;;;;5.03;0.65;;;37.50;1.00;;;;;;4997538;28;20228;-73
2023/12/16 03:51:59;;;;;;;2.20;0.60;;;37.90;1.00;;;;;;4997719;28;20288;-73
2023/12/16 03:54:26;;;;;;;0.77;0.40;;;37.80;1.00;;;;;;4997634;28;20174;-70
2023/12/16 03:56:53;;;;;;;2.47;0.40;;;37.70;1.00;;;;;;4996457;28;20214;-71
2023/12/16 03:59:21;;;;;;;1.05;0.40;;;38.00;1.00;;;;;;4995777;28;20230;-70
2023/12/16 04:01:48;;;;;;;5.13;0.50;;;38.00;1.00;;;;;;4996471;28;20175;-70
2023/12/16 04:04:15;;;;;;;2.50;0.55;;;38.10;1.00;;;;;;4996322;28;20186;-71
2023/12/16 04:06:47;;;;;;;3.17;0.68;;;38.10;1.00;;;;;;4996453;28;20179;-70
2023/12/16 04:09:14;;;;;;;1.17;0.45;;;38.40;1.00;;;;;;4996462;28;20178;-69
2023/12/16 04:11:49;;;;;;;2.30;0.70;;;38.50;1.00;;;;;;4996381;28;20193;-72
2023/12/16 04:14:16;;;;;;;5.85;0.75;;;38.30;1.00;;;;;;4996490;28;20174;-70
2023/12/16 04:16:43;;;;;;;1.88;0.70;;;38.80;1.00;;;;;;4996039;28;20194;-71
2023/12/16 04:19:12;;;;;;;2.15;0.50;;;38.90;1.00;;;;;;4978779;28;20215;-72
2023/12/16 04:21:40;;;;;;;1.95;1.00;;;39.20;1.00;;;;;;4978526;28;20543;-69
2023/12/16 04:24:07;;;;;;;3.45;0.50;;;39.00;1.00;;;;;;4995884;28;20218;-69
2023/12/16 04:26:36;;;;;;;3.00;0.57;;;38.80;1.00;;;;;;4997175;28;20174;-70
2023/12/16 04:29:04;;;;;;;2.30;0.38;;;38.60;1.00;;;;;;4996396;28;20181;-71
2023/12/16 04:31:31;;;;;;;2.40;0.40;;;38.30;1.00;;;;;;4996008;28;20267;-69
2023/12/16 04:33:58;;;;;;;3.33;0.40;;;38.50;1.00;;;;;;4996037;28;20253;-71
2023/12/16 04:36:26;;;;;;;1.20;0.50;;;37.80;1.00;;;;;;4995771;28;20178;-72
2023/12/16 04:42:15;;;;;;;0.77;0.30;;;37.80;1.00;;;;;;4995147;28;20193;-70
2023/12/16 04:44:42;;;;;;;2.65;0.60;;;37.50;1.00;;;;;;4995657;28;20191;-72
2023/12/16 04:47:10;;;;;;;1.17;0.40;;;36.90;1.00;;;;;;4995603;28;20213;-71
2023/12/16 04:49:37;;;;;;;4.28;0.52;;;37.00;1.00;;;;;;4995558;28;20179;-72
2023/12/16 04:52:05;;;;;;;0.63;0.45;;;36.90;1.00;;;;;;4995458;28;20636;-69
2023/12/16 04:54:32;;;;;;;1.52;0.52;;;37.10;1.00;;;;;;4995467;28;20197;-73
2023/12/16 04:57:00;;;;;;;5.07;0.77;;;37.20;1.00;;;;;;4995281;28;20329;-71
2023/12/16 04:59:27;;;;;;;2.40;0.50;;;37.70;1.00;;;;;;4978162;28;20201;-72
2023/12/16 05:01:55;;;;;;;3.00;0.50;;;37.70;1.00;;;;;;4995328;28;20210;-69
2023/12/16 05:04:22;;;;;;;2.15;0.55;;;36.90;1.00;;;;;;4995194;28;20198;-70
2023/12/16 05:06:49;;;;;;;2.53;0.50;;;37.10;1.00;;;;;;4977708;28;20695;-70
2023/12/16 05:09:17;;;;;;;1.02;0.40;;;37.50;1.00;;;;;;4994547;28;20251;-68
2023/12/16 05:11:45;;;;;;;1.15;0.25;;;37.50;1.00;;;;;;4994721;28;20179;-69
2023/12/16 05:14:12;;;;;;;1.60;0.40;;;37.20;1.00;;;;;;4995029;28;20178;-69
2023/12/16 05:16:40;;;;;;;3.20;0.50;;;37.10;1.00;;;;;;4977652;28;20186;-71
2023/12/16 05:19:07;;;;;;;0.70;0.30;;;37.50;1.00;;;;;;4995045;28;20210;-71
2023/12/16 05:21:34;;;;;;;2.28;0.90;;;37.30;1.00;;;;;;4994802;28;20253;-72
2023/12/16 05:24:02;;;;;;;1.65;0.55;;;37.30;1.00;;;;;;4995545;28;20179;-70
2023/12/16 05:26:29;;;;;;;5.25;1.75;;;37.40;1.00;;;;;;4994772;28;20182;-71
2023/12/16 05:28:56;;;;;;;5.60;2.08;;;37.50;1.00;;;;;;4994747;28;20221;-70
2023/12/16 05:31:23;;;;;;;2.80;0.88;;;37.80;1.00;;;;;;4995426;28;20182;-72
2023/12/16 05:33:51;;;;;;;4.82;1.10;;;37.60;1.00;;;;;;4994903;28;20201;-73
2023/12/16 05:36:18;;;;;;;4.22;0.90;;;37.50;1.00;;;;;;4994928;28;20171;-72
2023/12/16 05:38:45;;;;;;;1.52;0.60;;;37.20;1.00;;;;;;4977118;28;20309;-71
2023/12/16 05:41:16;;;;;;;1.92;0.55;;;36.70;1.00;;;;;;4994358;28;20513;-71
2023/12/16 05:43:43;;;;;;;3.45;0.70;;;36.80;1.00;;;;;;4994620;28;20174;-71
2023/12/16 05:46:11;;;;;;;1.77;0.70;;;37.00;1.00;;;;;;4979206;28;20542;-71
2023/12/16 05:48:38;;;;;;;1.52;0.50;;;36.90;1.00;;;;;;4994387;28;20233;-70
2023/12/16 05:51:05;;;;;;;2.97;1.08;;;37.40;1.00;;;;;;4994361;28;20595;-73
2023/12/16 05:53:35;;;;;;;4.05;0.85;;;37.80;1.00;;;;;;4994387;28;20182;-74
2023/12/16 05:56:06;;;;;;;2.38;1.00;;;37.70;1.00;;;;;;4994431;28;20286;-72
2023/12/16 05:58:34;;;;;;;1.10;0.55;;;37.60;1.00;;;;;;4994486;28;20235;-73
2023/12/16 06:01:01;;;;;;;1.17;0.50;;;37.20;1.00;;;;;;4994449;28;20173;-69
2023/12/16 06:03:28;;;;;;;4.05;0.85;;;36.70;1.00;;;;;;4994157;28;20248;-72
2023/12/16 06:05:56;;;;;;;4.43;0.80;;;36.30;1.00;;;;;;4994277;28;20186;-71
2023/12/16 06:08:23;;;;;;;1.80;0.50;;;36.20;1.00;;;;;;4994641;28;20201;-70
2023/12/16 06:10:50;;;;;;;2.90;0.70;;;36.10;1.00;;;;;;4994290;28;20179;-72
2023/12/16 06:13:18;;;;;;;1.13;0.32;;;36.30;1.00;;;;;;4994217;28;20261;-71
2023/12/16 06:15:45;;;;;;;2.78;0.50;;;36.40;1.00;;;;;;4994133;28;20174;-71
2023/12/16 06:18:12;;;;;;;2.33;0.90;;;36.20;1.00;;;;;;4993798;28;20202;-73
2023/12/16 06:20:40;;;;;;;3.00;0.40;;;36.00;1.00;;;;;;4993438;28;20175;-71
2023/12/16 06:23:07;;;;;;;0.90;0.40;;;36.10;1.00;;;;;;4993812;28;20182;-73
2023/12/16 06:25:34;;;;;;;4.32;0.52;;;35.90;1.00;;;;;;4994055;28;20194;-73
2023/12/16 06:28:02;;;;;;;2.25;0.80;;;35.90;1.00;;;;;;4994481;28;20690;-73
2023/12/16 06:30:29;;;;;;;3.35;0.80;;;35.80;1.00;;;;;;4994199;28;20213;-72
2023/12/16 06:32:56;;;;;;;3.65;0.47;;;35.70;1.00;;;;;;4994527;28;20175;-72
2023/12/16 06:35:24;;;;;;;1.35;0.50;;;35.50;1.00;;;;;;4994084;28;20651;-72
2023/12/16 06:37:51;;;;;;;3.03;0.60;;;35.30;1.00;;;;;;4994301;28;20209;-70
2023/12/16 06:40:19;;;;;;;2.97;0.75;;;35.10;1.00;;;;;;4995882;28;20699;-71
2023/12/16 06:42:46;;;;;;;1.30;0.55;;;35.10;1.00;;;;;;4977777;28;20175;-70
2023/12/16 06:45:13;;;;;;;2.13;0.63;;;35.00;1.00;;;;;;4994099;28;20179;-71
2023/12/16 06:47:41;;;;;;;2.38;0.52;;;35.20;1.00;;;;;;4985891;28;20183;-71
2023/12/16 06:50:09;;;;;;;7.05;0.80;;;35.10;1.00;;;;;;4995094;28;20190;-71
2023/12/16 06:52:36;;;;;;;5.72;0.95;;;35.30;1.00;;;;;;4995805;28;20186;-71
2023/12/16 06:55:04;;;;;;;3.80;1.55;;;35.20;1.00;;;;;;4994537;28;20201;-71
2023/12/16 06:57:31;;;;;;;3.70;1.58;;;34.90;1.00;;;;;;4976431;28;20762;-71
2023/12/16 06:59:59;;;;;;;2.55;1.02;;;34.70;1.00;;;;;;4994154;28;20652;-71
2023/12/16 07:02:26;;;;;;;3.88;1.60;;;34.60;1.00;;;;;;4993697;28;20249;-71
2023/12/16 07:04:53;;;;;;;3.63;1.50;;;34.30;1.00;;;;;;4994016;28;20590;-71
2023/12/16 07:07:21;;;;;;;2.65;1.25;;;34.00;1.00;;;;;;4993475;28;20202;-70
2023/12/16 07:09:48;;;;;;;3.67;1.30;;;33.80;1.00;;;;;;4993316;28;20656;-71
2023/12/16 07:12:15;;;;;;;5.70;1.30;;;33.60;1.00;;;;;;4994054;28;20177;-69
2023/12/16 07:14:43;;;;;;;4.90;1.35;;;33.40;1.00;;;;;;4993710;28;20178;-71
2023/12/16 07:17:10;;;;;;;3.40;1.42;;;33.20;1.00;;;;;;4993272;28;20233;-70
2023/12/16 07:19:38;;;;;;;5.70;1.98;;;33.10;1.00;;;;;;4978774;28;20194;-71
2023/12/16 07:22:05;;;;;;;6.15;1.80;;;33.00;1.00;;;;;;4984373;28;20616;-70
2023/12/16 07:24:33;;;;;;;7.07;1.90;;;32.80;2.20;;;;;;4992100;28;20206;-71
2023/12/16 07:27:00;;;;;;;7.07;1.48;;;32.60;5.40;;;;;;4990642;28;20182;-71
2023/12/16 07:29:27;;;;;;;4.60;2.10;;;32.30;8.60;;;;;;4990810;28;20209;-71
2023/12/16 07:35:17;;;;;;;5.47;1.52;;;31.90;9.70;;;;;;4996161;28;20192;-69
2023/12/16 07:37:44;;;;;;;7.28;1.70;;;31.70;7.00;;;;;;4996833;28;20206;-71
2023/12/16 07:40:12;;;;;;;4.20;1.70;;;31.50;6.90;;;;;;4995412;28;20190;-71
2023/12/16 07:42:40;;;;;;;3.88;1.90;;;31.40;9.30;;;;;;4997202;28;20190;-69
2023/12/16 07:45:08;;;;;;;4.22;1.80;;;31.30;15.10;;;;;;4996565;28;20632;-69
2023/12/16 07:47:35;;;;;;;5.55;2.03;;;31.00;18.90;;;;;;4978932;28;20710;-70
2023/12/16 07:50:03;;;;;;;7.18;2.15;;;30.90;23.50;;;;;;4996752;28;20179;-69
2023/12/16 07:52:31;;;;;;;4.30;2.10;;;30.60;29.10;;;;;;4996706;28;20540;-69
2023/12/16 07:54:58;;;;;;;6.20;2.13;;;30.50;34.40;;;;;;4979199;28;20178;-70
2023/12/16 07:57:26;;;;;;;9.10;2.42;;;30.30;35.60;;;;;;4978620;28;20226;-69
2023/12/16 07:59:53;;;;;;;4.37;2.00;;;30.20;38.40;;;;;;4996373;28;20171;-68
2023/12/16 08:02:21;;;;;;;6.10;1.63;;;30.10;32.60;;;;;;4978833;28;20560;-69
2023/12/16 08:04:49;;;;;;;6.80;1.83;;;30.10;29.50;;;;;;4995553;28;20552;-71
2023/12/16 08:07:16;;;;;;;9.63;1.83;;;30.10;28.00;;;;;;4996370;28;20167;-70
2023/12/16 08:09:44;;;;;;;4.00;1.45;;;30.20;26.70;;;;;;4978941;28;20563;-69
2023/12/16 08:12:11;;;;;;;10.25;1.95;;;30.30;24.30;;;;;;4995502;28;20175;-71
2023/12/16 08:14:39;;;;;;;3.40;1.40;;;30.40;25.00;;;;;;4974779;28;20190;-70
2023/12/16 08:17:06;;;;;;;4.23;1.70;;;30.50;24.60;;;;;;4996048;28;20175;-69
2023/12/16 08:19:34;;;;;;;5.17;1.53;;;30.60;24.10;;;;;;4995829;28;20226;-70
2023/12/16 08:22:02;;;;;;;3.63;1.60;;;30.50;23.20;;;;;;4996192;28;20171;-69
2023/12/16 08:24:29;;;;;;;2.90;1.20;;;30.30;22.30;;;;;;4996104;28;20182;-69
2023/12/16 08:26:56;;;;;;;3.97;1.10;;;30.10;14.70;;;;;;4996027;28;20206;-70
2023/12/16 08:29:24;;;;;;;4.70;1.30;;;29.80;11.00;;;;;;4995850;28;20197;-69
2023/12/16 08:31:51;;;;;;;7.50;1.70;;;29.60;12.50;;;;;;4995911;28;20171;-69
2023/12/16 08:34:19;;;;;;;5.43;1.57;;;29.40;14.60;;;;;;4995477;28;20182;-69
2023/12/16 08:36:48;;;;;;;5.10;1.30;;;29.20;16.50;;;;;;4978201;28;20182;-69
2023/12/16 08:39:16;;;;;;;4.87;1.50;;;29.10;18.80;;;;;;4995443;28;20221;-69
2023/12/16 08:41:44;;;;;;;2.57;1.07;;;28.90;19.20;;;;;;4995759;28;20174;-70
2023/12/16 08:44:11;;;;;;;6.17;1.40;;;28.90;20.80;;;;;;4995307;28;20582;-70
2023/12/16 08:46:42;;;;;;;6.60;1.67;;;28.80;21.30;;;;;;4995492;28;20214;-70
2023/12/16 08:49:10;;;;;;;6.53;2.60;;;28.60;23.80;;;;;;4978249;28;20579;-69
2023/12/16 08:51:37;;;;;;;10.90;2.70;;;28.30;99.90;;;;;;4995638;28;20214;-69
2023/12/16 08:54:05;;;;;;;7.93;2.70;;;27.60;99.90;;;;;;4995257;28;20210;-68
2023/12/16 08:56:32;;;;;;;10.23;3.47;;;27.10;99.90;;;;;;4995012;28;20179;-70
2023/12/16 08:58:59;;;;;;;8.70;2.60;;;26.80;99.90;;;;;;4995084;28;20222;-70
2023/12/16 09:01:27;;;;;;;9.40;2.90;;;26.50;99.90;;;;;;4995283;28;20188;-70
2023/12/16 09:03:54;;;;;;;13.63;3.50;;;26.40;99.90;;;;;;4994650;28;20293;-68
2023/12/16 09:06:24;;;;;;;14.40;2.80;;;26.30;99.90;;;;;;4995097;28;20179;-69
2023/12/16 09:08:51;;;;;;;9.13;2.87;;;26.00;99.90;;;;;;4995297;28;20237;-69
2023/12/16 09:11:19;;;;;;;9.37;2.67;;;25.80;99.90;;;;;;4995248;28;20246;-69
2023/12/16 09:13:46;;;;;;;12.27;2.93;;;25.60;99.90;;;;;;4994715;28;20210;-69
2023/12/16 09:16:13;;;;;;;12.33;2.73;;;25.40;99.90;;;;;;4994674;28;20171;-71
2023/12/16 09:18:41;;;;;;;17.83;3.20;;;25.30;99.90;;;;;;4994965;28;20206;-71
2023/12/16 09:21:08;;;;;;;13.33;3.60;;;25.20;99.90;;;;;;4994954;28;20617;-70
2023/12/16 09:23:35;;;;;;;8.83;2.40;;;25.10;99.90;;;;;;4994667;28;20229;-68
2023/12/16 09:26:03;;;;;;;10.23;2.50;;;25.00;99.90;;;;;;4994523;28;20209;-71
2023/12/16 09:28:30;;;;;;;15.93;2.30;;;25.00;99.90;;;;;;4994627;28;20206;-69
2023/12/16 09:30:57;;;;;;;11.67;2.77;;;25.00;99.90;;;;;;4994897;28;20257;-68
2023/12/16 09:33:25;;;;;;;8.63;2.50;;;24.80;99.90;;;;;;4994358;28;20182;-71
2023/12/16 09:35:52;;;;;;;14.13;2.47;;;24.70;99.90;;;;;;4994509;28;20171;-69
2023/12/16 09:38:20;;;;;;;15.47;2.67;;;24.60;99.90;;;;;;4995238;28;20280;-69
2023/12/16 09:40:47;;;;;;;13.13;2.73;;;24.50;99.90;;;;;;4994480;28;20182;-70
2023/12/16 09:43:18;;;;;;;9.27;2.60;;;24.50;99.90;;;;;;4975253;28;20269;-69
2023/12/16 09:45:49;;;;;;;16.20;3.00;;;24.40;99.90;;;;;;4976797;28;20340;-71
2023/12/16 09:48:19;;;;;;;13.80;3.20;;;24.40;99.90;;;;;;4994205;28;20209;-69
2023/12/16 09:50:46;;;;;;;15.30;2.87;;;24.40;99.90;;;;;;4991989;28;20663;-70
2023/12/16 09:53:14;;;;;;;13.50;3.00;;;24.40;99.90;;;;;;4994180;28;20187;-70
2023/12/16 09:55:42;;;;;;;10.90;2.97;;;24.30;99.90;;;;;;4993229;28;20274;-71
2023/12/16 09:58:15;;;;;;;12.23;2.57;;;24.30;99.90;;;;;;4994039;28;20289;-68
2023/12/16 10:00:46;;;;;;;15.73;3.23;;;24.20;99.90;;;;;;4976725;28;20237;-71
2023/12/16 10:03:17;;;;;;;13.27;3.37;;;24.20;99.90;;;;;;4994212;28;20695;-70
2023/12/16 10:05:49;;;;;;;14.43;2.83;;;24.20;99.90;;;;;;4993891;28;20201;-69
2023/12/16 10:08:16;;;;;;;18.30;3.20;;;24.10;99.90;;;;;;4993942;28;20175;-70
2023/12/16 10:10:44;;;;;;;13.90;3.27;;;24.10;99.90;;;;;;4989876;28;20598;-70
2023/12/16 10:13:11;;;;;;;10.90;2.40;;;24.10;99.90;;;;;;4994096;28;20175;-71
2023/12/16 10:15:38;;;;;;;10.90;3.03;;;24.00;99.90;;;;;;4993988;28;20225;-70
2023/12/16 10:18:06;;;;;;;14.80;2.67;;;24.00;99.90;;;;;;4993561;28;20214;-70
2023/12/16 10:20:33;;;;;;;17.13;2.77;;;23.90;99.90;;;;;;4993433;28;20178;-70
2023/12/16 10:23:03;;;;;;;13.43;2.97;;;23.90;99.90;;;;;;4993835;28;20179;-70
2023/12/16 10:25:34;;;;;;;18.23;2.57;;;23.90;99.90;;;;;;4993349;28;20240;-70
2023/12/16 10:28:02;;;;;;;10.73;2.90;;;23.90;99.90;;;;;;4990768;28;20214;-70
2023/12/16 10:30:31;;;;;;;15.20;3.17;;;23.90;99.90;;;;;;4993123;28;20179;-69
2023/12/16 10:33:02;;;;;;;12.87;2.70;;;23.80;99.90;;;;;;4993102;28;20621;-70
2023/12/16 10:35:30;;;;;;;7.73;2.73;;;23.80;99.90;;;;;;4993377;28;20205;-69
2023/12/16 10:37:57;;;;;;;12.87;2.57;;;23.70;99.90;;;;;;4993827;28;20214;-69
2023/12/16 10:40:26;;;;;;;14.60;2.30;;;23.70;99.90;;;;;;4993506;28;20178;-69
2023/12/16 10:42:54;;;;;;;10.30;2.70;;;23.60;99.90;;;;;;4993631;28;20187;-70
2023/12/16 10:45:21;;;;;;;10.63;2.70;;;23.60;99.90;;;;;;4993777;28;20177;-70
2023/12/16 10:47:50;;;;;;;10.40;2.93;;;23.70;99.90;;;;;;4993708;28;20171;-70
2023/12/16 10:50:18;;;;;;;13.57;3.13;;;23.70;99.90;;;;;;4976297;28;20183;-70
2023/12/16 10:52:53;;;;;;;10.70;2.53;;;23.60;99.90;;;;;;4993414;28;20183;-69
2023/12/16 10:55:35;;;;;;;12.93;3.00;;;23.50;99.90;;;;;;4993161;28;20715;-70
2023/12/16 10:58:21;;;;;;;5.97;2.20;;;23.40;99.90;;;;;;4992563;28;20230;-70
2023/12/16 11:00:54;;;;;;;11.57;2.23;;;23.40;99.90;;;;;;4993507;28;20644;-69
2023/12/16 11:03:40;;;;;;;16.37;2.87;;;23.40;99.90;;;;;;4993839;28;20183;-71
2023/12/16 11:06:13;;;;;;;14.50;3.30;;;23.30;99.90;;;;;;4993741;28;20186;-68
2023/12/16 11:08:41;;;;;;;10.47;2.70;;;23.20;99.90;;;;;;4997076;28;20260;-70
2023/12/16 11:11:09;;;;;;;12.13;3.27;;;23.10;99.90;;;;;;4997242;28;20594;-70
2023/12/16 11:13:37;;;;;;;15.37;3.10;;;23.20;99.90;;;;;;4997546;28;20193;-69
2023/12/16 11:16:14;;;;;;;12.80;3.40;;;23.20;99.90;;;;;;4997023;28;20187;-70
2023/12/16 11:18:42;;;;;;;13.83;3.07;;;23.20;99.90;;;;;;4996941;28;20218;-71
2023/12/16 11:21:14;;;;;;;12.90;2.70;;;23.30;99.90;;;;;;4997325;28;20187;-70
2023/12/16 11:23:52;;;;;;;14.70;2.90;;;23.30;99.90;;;;;;4997319;28;20699;-69
2023/12/16 11:26:20;;;;;;;13.00;2.30;;;23.20;99.90;;;;;;4997130;28;20179;-69
2023/12/16 11:28:54;;;;;;;17.27;2.83;;;23.20;99.90;;;;;;4997221;28;20190;-69
2023/12/16 11:31:21;;;;;;;17.93;3.27;;;23.30;99.90;;;;;;4996960;28;20229;-70
2023/12/16 11:33:49;;;;;;;12.63;2.73;;;23.20;99.90;;;;;;4996933;28;20189;-70
2023/12/16 11:36:19;;;;;;;11.73;3.10;;;23.20;99.90;;;;;;4996744;28;20587;-71
2023/12/16 11:38:47;;;;;;;11.70;2.97;;;23.10;99.90;;;;;;4996660;28;20217;-70
2023/12/16 11:41:37;;;;;;;6.93;2.40;;;23.10;99.90;;;;;;4996662;28;20662;-68
2023/12/16 11:44:05;;;;;;;8.80;2.03;;;23.20;99.90;;;;;;4996748;28;20232;-69
2023/12/16 11:46:43;;;;;;;13.83;2.50;;;23.30;99.90;;;;;;4996589;28;20193;-70
2023/12/16 11:49:14;;;;;;;11.87;2.13;;;23.30;99.90;;;;;;4996801;28;20205;-69
2023/12/16 11:51:42;;;;;;;12.13;2.37;;;23.20;99.90;;;;;;4979187;28;20201;-70
2023/12/16 11:54:14;;;;;;;17.03;3.00;;;23.20;99.90;;;;;;4996998;28;20187;-70
2023/12/16 11:56:41;;;;;;;10.10;2.60;;;23.20;99.90;;;;;;4979751;28;20182;-70
2023/12/16 11:59:09;;;;;;;18.13;2.90;;;23.10;99.90;;;;;;4996182;28;20218;-69
2023/12/16 12:01:36;;;;;;;11.70;2.50;;;23.20;99.90;;;;;;4979032;28;20631;-69
2023/12/16 12:04:04;;;;;;;15.33;3.40;;;23.00;99.90;;;;;;4996617;28;20691;-70
2023/12/16 12:06:32;;;;;;;10.80;2.83;;;23.00;99.90;;;;;;4996517;28;20663;-70
2023/12/16 12:09:00;;;;;;;11.67;2.00;;;23.10;99.90;;;;;;4996125;28;20660;-69
2023/12/16 12:11:27;;;;;;;8.30;2.10;;;23.10;99.90;;;;;;4996851;28;20178;-68
2023/12/16 12:13:55;;;;;;;8.83;2.33;;;23.00;99.90;;;;;;4996237;28;20221;-68
2023/12/16 12:16:23;;;;;;;13.40;3.50;;;23.10;99.90;;;;;;4996012;28;20186;-70
2023/12/16 12:18:50;;;;;;;9.57;2.80;;;23.10;99.90;;;;;;4995781;28;20221;-72
2023/12/16 12:21:18;;;;;;;11.03;2.83;;;23.00;99.90;;;;;;4996145;28;20171;-69
2023/12/16 12:23:45;;;;;;;13.07;3.03;;;22.90;99.90;;;;;;4996142;28;20246;-70
2023/12/16 12:26:13;;;;;;;10.20;2.37;;;22.80;99.90;;;;;;4996113;28;20252;-71
2023/12/16 12:28:40;;;;;;;9.80;2.77;;;22.70;99.90;;;;;;4995909;28;20182;-69
2023/12/16 12:31:09;;;;;;;11.73;2.47;;;22.80;99.90;;;;;;4996576;28;20175;-70
2023/12/16 12:33:37;;;;;;;11.33;2.43;;;22.80;99.90;;;;;;4996303;28;20201;-70
2023/12/16 12:36:05;;;;;;;9.33;2.47;;;22.70;99.90;;;;;;4995888;28;20171;-68
2023/12/16 12:38:33;;;;;;;10.40;2.43;;;22.80;99.90;;;;;;4995890;28;20759;-69
2023/12/16 12:41:06;;;;;;;12.00;2.60;;;22.90;99.90;;;;;;4996147;28;20183;-70
2023/12/16 12:43:35;;;;;;;15.83;2.57;;;22.90;99.90;;;;;;4996014;28;20205;-68
2023/12/16 12:46:10;;;;;;;10.47;2.70;;;23.00;99.90;;;;;;4995635;28;20210;-70
2023/12/16 12:48:39;;;;;;;11.80;3.10;;;23.00;99.90;;;;;;4997236;28;20190;-68
2023/12/16 12:51:11;;;;;;;8.33;2.07;;;23.00;99.90;;;;;;4997947;28;20273;-68
2023/12/16 12:53:39;;;;;;;13.43;2.43;;;23.00;99.90;;;;;;4997632;28;20193;-70
2023/12/16 12:56:07;;;;;;;14.70;2.17;;;23.00;99.90;;;;;;4997019;28;20262;-70
2023/12/16 12:58:35;;;;;;;14.07;2.53;;;23.00;99.90;;;;;;4997366;28;20277;-67
2023/12/16 13:01:05;;;;;;;13.63;2.60;;;23.10;99.90;;;;;;4978814;28;20171;-70
2023/12/16 13:03:34;;;;;;;15.53;2.80;;;23.00;99.90;;;;;;4995198;28;20548;-70
2023/12/16 13:06:06;;;;;;;9.07;2.27;;;23.00;99.90;;;;;;4995110;28;20194;-70
2023/12/16 13:08:34;;;;;;;6.43;2.20;;;23.00;99.90;;;;;;4995252;28;20187;-70